Time;durP1;ratioP1;P1;durP2;ratioP2;P2;SDS_P1;SDS_P2;PMS_P1;PMS_P2;Temp;Humidity;BMP_temperature;BMP_pressure;BME280_temperature;BME280_humidity;BME280_pressure;Samples;Min_cycle;Max_cycle;Signal;HPM_P1;HPM_P2
2021/03/06 00:00:13;;;;;;;5.47;2.30;;;1.80;84.00;;;;;;5065088;28;20023;-39
2021/03/06 00:02:39;;;;;;;5.28;2.58;;;1.80;84.10;;;;;;5064840;28;20124;-35
2021/03/06 00:05:07;;;;;;;5.72;2.13;;;1.70;84.20;;;;;;5064504;28;20036;-39
2021/03/06 00:07:33;;;;;;;5.53;2.70;;;1.60;84.20;;;;;;5064997;28;20031;-39
2021/03/06 00:09:58;;;;;;;3.75;1.98;;;1.60;84.40;;;;;;5065515;28;20348;-39
2021/03/06 00:12:24;;;;;;;5.07;1.83;;;1.50;84.40;;;;;;5064595;28;20538;-35
2021/03/06 00:14:49;;;;;;;3.30;2.05;;;1.40;84.60;;;;;;5065369;28;20051;-36
2021/03/06 00:17:15;;;;;;;5.22;2.33;;;1.40;84.80;;;;;;5064978;28;20031;-45
2021/03/06 00:19:41;;;;;;;4.10;1.98;;;1.30;84.80;;;;;;5064184;28;20024;-39
2021/03/06 00:22:06;;;;;;;3.55;1.90;;;1.30;84.90;;;;;;5065373;28;20055;-40
2021/03/06 00:24:32;;;;;;;5.07;1.95;;;1.30;85.10;;;;;;5064869;28;20090;-37
2021/03/06 00:26:58;;;;;;;5.88;2.50;;;1.20;85.10;;;;;;5065186;28;20749;-38
2021/03/06 00:29:24;;;;;;;4.80;2.45;;;1.20;85.30;;;;;;5064544;28;20038;-38
2021/03/06 00:31:49;;;;;;;3.38;1.83;;;1.20;85.40;;;;;;5064679;28;20024;-39
2021/03/06 00:34:15;;;;;;;3.33;2.03;;;1.20;85.50;;;;;;5062039;28;20395;-39
2021/03/06 00:36:43;;;;;;;5.03;1.90;;;1.10;85.50;;;;;;5064651;28;20096;-38
2021/03/06 00:39:12;;;;;;;4.63;2.22;;;1.10;85.60;;;;;;5064619;28;20020;-39
2021/03/06 00:41:38;;;;;;;6.35;3.10;;;1.10;85.80;;;;;;5064411;28;20432;-38
2021/03/06 00:44:03;;;;;;;5.72;2.50;;;1.10;86.20;;;;;;5064476;28;20035;-38
2021/03/06 00:46:29;;;;;;;9.15;2.80;;;1.10;86.40;;;;;;5064933;28;20115;-39
2021/03/06 00:48:55;;;;;;;6.43;2.80;;;1.10;86.40;;;;;;5064599;28;20367;-37
2021/03/06 00:51:21;;;;;;;8.30;2.50;;;1.10;86.50;;;;;;5064468;28;20027;-38
2021/03/06 00:53:47;;;;;;;5.88;2.63;;;1.10;86.50;;;;;;5063735;28;20488;-39
2021/03/06 00:56:12;;;;;;;7.65;2.92;;;1.00;86.60;;;;;;5064313;28;20031;-37
2021/03/06 00:58:38;;;;;;;7.55;2.28;;;1.00;86.80;;;;;;5064802;28;20115;-37
2021/03/06 01:01:09;;;;;;;5.85;2.85;;;1.00;86.80;;;;;;5064406;28;20532;-36
2021/03/06 01:03:34;;;;;;;6.22;2.63;;;1.00;86.90;;;;;;5064509;28;20101;-38
2021/03/06 01:06:00;;;;;;;5.68;2.20;;;1.00;87.10;;;;;;5064641;28;20028;-39
2021/03/06 01:08:26;;;;;;;3.50;1.80;;;1.00;87.10;;;;;;5063875;28;20468;-39
2021/03/06 01:10:53;;;;;;;4.95;2.83;;;0.90;87.00;;;;;;5064335;28;20078;-38
2021/03/06 01:13:20;;;;;;;2.70;1.98;;;0.90;87.00;;;;;;5064818;28;20037;-36
2021/03/06 01:15:49;;;;;;;6.47;2.20;;;0.90;87.00;;;;;;5063695;28;20645;-36
2021/03/06 01:18:14;;;;;;;5.55;2.05;;;0.80;87.10;;;;;;5064085;28;20129;-37
2021/03/06 01:20:40;;;;;;;5.65;2.35;;;0.80;87.20;;;;;;5064309;28;20141;-39
2021/03/06 01:23:06;;;;;;;4.65;1.90;;;0.80;87.30;;;;;;5064078;28;20048;-37
2021/03/06 01:25:32;;;;;;;5.57;2.33;;;0.80;87.40;;;;;;5064000;28;20048;-39
2021/03/06 01:27:57;;;;;;;4.13;2.20;;;0.80;87.30;;;;;;5064569;28;20035;-39
2021/03/06 01:30:24;;;;;;;4.88;2.95;;;0.80;87.40;;;;;;5063647;28;20024;-40
2021/03/06 01:32:51;;;;;;;5.32;2.28;;;0.80;87.50;;;;;;5052983;28;20025;-40
2021/03/06 01:35:23;;;;;;;7.47;2.30;;;0.90;87.90;;;;;;5064362;28;20021;-38
2021/03/06 01:37:49;;;;;;;7.00;2.55;;;0.90;88.00;;;;;;5063909;28;20040;-38
2021/03/06 01:40:19;;;;;;;5.25;2.45;;;0.90;88.10;;;;;;5063749;28;20044;-39
2021/03/06 01:42:44;;;;;;;6.55;2.60;;;0.90;88.20;;;;;;5060635;28;20127;-37
2021/03/06 01:45:10;;;;;;;11.07;3.22;;;0.90;88.50;;;;;;5065323;28;20127;-39
2021/03/06 01:47:37;;;;;;;7.55;2.72;;;0.90;88.80;;;;;;5067438;28;20024;-37
2021/03/06 01:50:04;;;;;;;9.30;2.97;;;0.90;89.10;;;;;;5067955;28;20723;-40
2021/03/06 01:52:29;;;;;;;7.07;3.00;;;0.80;89.40;;;;;;5066912;28;20020;-36
2021/03/06 01:54:57;;;;;;;8.65;2.67;;;0.80;89.60;;;;;;5067865;28;20059;-34
2021/03/06 01:57:24;;;;;;;7.32;2.58;;;0.80;89.80;;;;;;5067408;28;20035;-40
2021/03/06 01:59:50;;;;;;;6.05;2.55;;;0.90;90.00;;;;;;5067167;28;20039;-42
2021/03/06 02:02:16;;;;;;;8.07;2.35;;;0.80;90.00;;;;;;5067132;28;20013;-39
2021/03/06 02:04:48;;;;;;;7.40;2.75;;;0.80;90.00;;;;;;5067505;28;20028;-37
2021/03/06 02:07:14;;;;;;;9.98;2.83;;;0.80;90.10;;;;;;5067223;28;20059;-38
2021/03/06 02:09:39;;;;;;;6.60;2.63;;;0.80;90.20;;;;;;5067714;28;20504;-40
2021/03/06 02:12:23;;;;;;;8.55;3.00;;;0.70;90.20;;;;;;5067004;28;20103;-41
2021/03/06 02:15:29;;;;;;;8.48;2.78;;;0.70;90.30;;;;;;5067452;28;20524;-40
2021/03/06 02:18:01;;;;;;;4.78;2.50;;;0.70;90.40;;;;;;5067388;28;20416;-39
2021/03/06 02:21:24;;;;;;;10.00;2.95;;;0.70;90.40;;;;;;5066938;28;20021;-38
2021/03/06 02:24:27;;;;;;;4.43;2.40;;;0.60;90.40;;;;;;5023735;28;20021;-37
2021/03/06 02:27:15;;;;;;;4.25;2.33;;;0.60;90.40;;;;;;5023507;28;20057;-37
2021/03/06 02:29:56;;;;;;;5.78;2.67;;;0.60;90.50;;;;;;5061402;28;20041;-38
2021/03/06 02:32:25;;;;;;;4.20;2.20;;;0.60;90.60;;;;;;5067023;28;20055;-39
2021/03/06 02:35:15;;;;;;;7.93;2.35;;;0.60;90.60;;;;;;5066197;28;20040;-40
2021/03/06 02:37:55;;;;;;;8.32;2.55;;;0.60;90.70;;;;;;5046522;28;20031;-39
2021/03/06 02:40:23;;;;;;;5.00;2.00;;;0.60;90.80;;;;;;5066385;28;20051;-38
2021/03/06 02:42:51;;;;;;;6.03;2.28;;;0.50;90.70;;;;;;5066423;28;20128;-39
2021/03/06 02:45:18;;;;;;;6.63;2.47;;;0.60;90.80;;;;;;5066612;28;20029;-38
2021/03/06 02:47:44;;;;;;;8.07;2.40;;;0.50;90.80;;;;;;5066038;28;20036;-36
2021/03/06 02:50:11;;;;;;;3.88;2.30;;;0.60;90.90;;;;;;5066647;28;20073;-40
2021/03/06 02:52:36;;;;;;;7.88;2.30;;;0.60;90.90;;;;;;5066351;28;20743;-39
2021/03/06 02:55:04;;;;;;;8.40;1.90;;;0.50;90.90;;;;;;5065415;28;20135;-39
2021/03/06 02:57:40;;;;;;;6.63;2.20;;;0.50;90.90;;;;;;5065803;28;20486;-36
2021/03/06 03:00:23;;;;;;;7.43;2.47;;;0.50;91.00;;;;;;5066165;28;20047;-39
2021/03/06 03:03:10;;;;;;;6.72;2.20;;;0.50;91.00;;;;;;5066140;28;20127;-37
2021/03/06 03:05:45;;;;;;;12.07;2.40;;;0.50;91.00;;;;;;5066517;28;20075;-37
2021/03/06 03:08:20;;;;;;;4.05;2.00;;;0.50;91.10;;;;;;5065892;28;20039;-38
2021/03/06 03:10:51;;;;;;;4.18;1.92;;;0.50;91.10;;;;;;5063932;28;20076;-39
2021/03/06 03:13:38;;;;;;;3.35;1.92;;;0.50;91.10;;;;;;5066267;28;20123;-38
2021/03/06 03:16:10;;;;;;;5.95;1.95;;;0.40;91.10;;;;;;5063985;28;20119;-37
2021/03/06 03:18:43;;;;;;;5.27;1.80;;;0.40;91.10;;;;;;5065819;28;20025;-39
2021/03/06 03:21:11;;;;;;;2.35;1.75;;;0.40;91.20;;;;;;5065627;28;20028;-37
2021/03/06 03:23:43;;;;;;;3.45;1.60;;;0.40;91.20;;;;;;5065675;28;20448;-37
2021/03/06 03:26:12;;;;;;;3.95;1.70;;;0.30;91.20;;;;;;5062243;28;20087;-38
2021/03/06 03:28:40;;;;;;;3.53;1.40;;;0.30;91.20;;;;;;5065760;28;20054;-36
2021/03/06 03:31:08;;;;;;;3.83;1.60;;;0.30;91.20;;;;;;5064972;28;20150;-38
2021/03/06 03:33:36;;;;;;;3.85;1.60;;;0.20;91.10;;;;;;5065742;28;20120;-37
2021/03/06 03:36:04;;;;;;;3.22;1.63;;;0.20;91.20;;;;;;5064821;28;20117;-37
2021/03/06 03:38:31;;;;;;;3.58;1.80;;;0.20;91.20;;;;;;5065575;28;20086;-38
2021/03/06 03:40:58;;;;;;;3.00;1.77;;;0.10;91.20;;;;;;5065869;28;20025;-38
2021/03/06 03:43:24;;;;;;;3.35;1.70;;;0.10;91.30;;;;;;5064643;28;20021;-36
2021/03/06 03:45:52;;;;;;;2.72;1.70;;;0.10;91.30;;;;;;5065482;28;20043;-39
2021/03/06 03:48:24;;;;;;;4.63;1.58;;;0.10;91.30;;;;;;5065331;28;20052;-39
2021/03/06 03:50:50;;;;;;;2.40;1.48;;;0.10;91.60;;;;;;5064845;28;20028;-35
2021/03/06 03:53:18;;;;;;;3.22;1.40;;;0.00;91.30;;;;;;5064984;28;20036;-39
2021/03/06 03:55:46;;;;;;;3.17;1.25;;;0.00;91.30;;;;;;5065012;28;20314;-37
2021/03/06 03:58:12;;;;;;;4.68;1.67;;;0.00;91.30;;;;;;5064766;28;20107;-39
2021/03/06 04:00:38;;;;;;;3.03;1.83;;;-0.10;91.30;;;;;;5065253;28;20174;-39
2021/03/06 04:03:05;;;;;;;2.58;1.70;;;-0.10;91.30;;;;;;5064356;28;20639;-37
2021/03/06 04:05:30;;;;;;;4.25;1.70;;;-0.10;91.40;;;;;;5064344;28;20043;-38
2021/03/06 04:07:56;;;;;;;4.55;1.67;;;-0.10;91.40;;;;;;5064834;28;20413;-39
2021/03/06 04:10:25;;;;;;;2.70;1.38;;;-0.10;91.40;;;;;;5064395;28;20024;-36
2021/03/06 04:12:53;;;;;;;3.63;1.55;;;-0.10;91.40;;;;;;5064328;28;20020;-39
2021/03/06 04:15:20;;;;;;;4.25;1.40;;;-0.10;91.40;;;;;;5064883;28;20044;-40
2021/03/06 04:17:47;;;;;;;3.75;1.58;;;-0.20;91.40;;;;;;5064557;28;20031;-39
2021/03/06 04:20:20;;;;;;;4.28;1.60;;;-0.20;91.40;;;;;;5064909;28;20021;-38
2021/03/06 04:22:47;;;;;;;5.80;1.90;;;-0.20;91.60;;;;;;5064833;28;20039;-39
2021/03/06 04:25:13;;;;;;;5.57;1.90;;;-0.20;91.70;;;;;;5064538;28;20125;-36
2021/03/06 04:27:39;;;;;;;7.43;2.20;;;-0.20;91.70;;;;;;5064567;28;20127;-36
2021/03/06 04:30:10;;;;;;;5.30;1.83;;;-0.10;91.70;;;;;;5064509;28;20523;-39
2021/03/06 04:32:36;;;;;;;6.75;2.20;;;-0.10;91.70;;;;;;5063943;28;20467;-36
2021/03/06 04:35:03;;;;;;;3.47;1.85;;;-0.10;91.70;;;;;;5064814;28;20058;-37
2021/03/06 04:37:31;;;;;;;5.75;2.00;;;-0.10;91.80;;;;;;5064893;28;20021;-38
2021/03/06 04:39:58;;;;;;;2.63;1.55;;;-0.10;91.80;;;;;;5064516;28;20016;-38
2021/03/06 04:42:23;;;;;;;2.63;1.58;;;-0.10;91.80;;;;;;5064469;28;20116;-36
2021/03/06 04:44:49;;;;;;;5.40;2.08;;;-0.10;91.80;;;;;;5064415;28;20498;-38
2021/03/06 04:47:15;;;;;;;2.65;1.60;;;-0.20;91.80;;;;;;5064415;28;20107;-38
2021/03/06 04:49:41;;;;;;;3.75;1.92;;;-0.20;91.80;;;;;;5064537;28;20062;-37
2021/03/06 04:52:06;;;;;;;6.38;2.08;;;-0.20;91.90;;;;;;5064680;28;20020;-40
2021/03/06 04:54:32;;;;;;;5.53;2.30;;;-0.20;91.90;;;;;;5052932;28;20181;-40
2021/03/06 04:57:01;;;;;;;3.67;1.77;;;-0.20;92.00;;;;;;5064675;28;20029;-37
2021/03/06 04:59:27;;;;;;;5.38;2.00;;;-0.20;92.10;;;;;;5064956;28;20036;-39
2021/03/06 05:01:52;;;;;;;4.95;1.92;;;-0.20;92.00;;;;;;5064042;28;20062;-40
2021/03/06 05:04:18;;;;;;;3.13;1.67;;;-0.30;92.00;;;;;;5064504;28;20021;-38
2021/03/06 05:06:45;;;;;;;4.22;1.75;;;-0.30;92.00;;;;;;5064548;28;20146;-40
2021/03/06 05:09:11;;;;;;;8.07;2.17;;;-0.30;92.00;;;;;;5064131;28;20439;-40
2021/03/06 05:11:36;;;;;;;4.75;2.00;;;-0.30;92.10;;;;;;5064453;28;20127;-40
2021/03/06 05:14:02;;;;;;;4.50;1.90;;;-0.30;92.10;;;;;;5064100;28;20416;-40
2021/03/06 05:16:28;;;;;;;5.10;1.58;;;-0.30;92.10;;;;;;5064418;28;20059;-37
2021/03/06 05:18:53;;;;;;;3.63;1.60;;;-0.30;92.10;;;;;;5064249;28;20029;-39
2021/03/06 05:21:19;;;;;;;4.95;2.00;;;-0.40;92.10;;;;;;5067695;28;20508;-36
2021/03/06 05:23:44;;;;;;;4.30;1.77;;;-0.40;92.10;;;;;;5067782;28;20094;-39
2021/03/06 05:26:10;;;;;;;5.63;1.50;;;-0.40;92.10;;;;;;5068082;28;20071;-37
2021/03/06 05:28:35;;;;;;;3.80;1.65;;;-0.40;92.10;;;;;;5067555;28;20425;-35
2021/03/06 05:31:01;;;;;;;4.55;2.13;;;-0.50;92.10;;;;;;5068395;28;20024;-38
2021/03/06 05:33:30;;;;;;;2.80;1.80;;;-0.50;92.20;;;;;;5068481;28;20016;-38
2021/03/06 05:35:55;;;;;;;3.85;1.83;;;-0.50;92.20;;;;;;5056573;28;20024;-36
2021/03/06 05:38:21;;;;;;;5.10;2.00;;;-0.50;92.20;;;;;;5068111;28;20422;-35
2021/03/06 05:40:48;;;;;;;4.78;1.77;;;-0.50;92.20;;;;;;5067802;28;20104;-39
2021/03/06 05:43:15;;;;;;;2.75;1.45;;;-0.50;92.20;;;;;;5067252;28;20093;-36
2021/03/06 05:45:48;;;;;;;3.53;1.88;;;-0.60;92.20;;;;;;5066705;28;20384;-39
2021/03/06 05:48:15;;;;;;;;;;;-0.60;92.20;;;;;;5068077;28;20086;-38
2021/03/06 05:50:41;;;;;;;3.83;1.60;;;-0.60;92.20;;;;;;5067007;28;19916;-38
2021/03/06 05:53:10;;;;;;;2.70;1.58;;;-0.70;92.20;;;;;;5067968;28;20024;-38
2021/03/06 05:55:37;;;;;;;4.03;1.80;;;-0.70;92.20;;;;;;5067096;28;20075;-39
2021/03/06 05:58:04;;;;;;;4.38;2.00;;;-0.70;92.30;;;;;;5067731;28;20171;-39
2021/03/06 06:00:31;;;;;;;4.40;1.80;;;-0.70;92.30;;;;;;5068114;28;20035;-38
2021/03/06 06:02:57;;;;;;;6.43;1.80;;;-0.70;92.30;;;;;;5067877;28;20107;-37
2021/03/06 06:05:24;;;;;;;9.43;2.17;;;-0.70;92.40;;;;;;5067196;28;20031;-39
2021/03/06 06:07:55;;;;;;;5.05;2.28;;;-0.70;92.50;;;;;;5067706;28;20029;-38
2021/03/06 06:10:21;;;;;;;5.65;1.85;;;-0.60;92.50;;;;;;5067278;28;20021;-38
2021/03/06 06:12:46;;;;;;;4.93;1.90;;;-0.60;92.50;;;;;;5067209;28;20025;-38
2021/03/06 06:15:13;;;;;;;6.00;2.13;;;-0.70;92.50;;;;;;5066701;28;20452;-38
2021/03/06 06:17:39;;;;;;;3.38;2.50;;;-0.60;92.50;;;;;;5067111;28;20108;-36
2021/03/06 06:20:05;;;;;;;6.20;2.25;;;-0.60;92.60;;;;;;5063837;28;20028;-39
2021/03/06 06:22:32;;;;;;;4.22;2.13;;;-0.70;92.60;;;;;;5066473;28;20020;-39
2021/03/06 06:24:57;;;;;;;4.97;2.15;;;-0.70;92.60;;;;;;5066643;28;20494;-40
2021/03/06 06:27:24;;;;;;;3.55;1.90;;;-0.70;92.70;;;;;;5066826;28;20024;-39
2021/03/06 06:29:51;;;;;;;5.70;2.17;;;-0.60;92.80;;;;;;5066725;28;20052;-40
2021/03/06 06:32:19;;;;;;;5.27;2.33;;;-0.60;92.80;;;;;;5065475;28;20024;-36
2021/03/06 06:35:02;;;;;;;5.40;2.33;;;-0.60;92.70;;;;;;5067189;28;20669;-39
2021/03/06 06:37:29;;;;;;;4.50;1.85;;;-0.60;92.70;;;;;;5065726;28;20078;-37
2021/03/06 06:39:59;;;;;;;4.60;2.20;;;-0.60;92.70;;;;;;5065665;28;20180;-38
2021/03/06 06:42:32;;;;;;;3.83;2.23;;;-0.60;92.70;;;;;;5065156;28;20020;-38
2021/03/06 06:44:58;;;;;;;;;;;-0.60;92.70;;;;;;5066134;28;20082;-38
2021/03/06 06:47:24;;;;;;;5.60;1.77;;;-0.50;92.70;;;;;;5064499;28;19912;-36
2021/03/06 06:49:53;;;;;;;4.40;2.07;;;-0.60;92.60;;;;;;5065957;28;20177;-38
2021/03/06 06:52:20;;;;;;;5.03;2.20;;;-0.50;92.60;;;;;;5065692;28;20034;-38
2021/03/06 06:55:01;;;;;;;4.38;2.10;;;-0.50;92.60;;;;;;5065742;28;20139;-38
2021/03/06 06:57:27;;;;;;;5.22;2.17;;;-0.50;92.60;;;;;;5067212;28;20020;-37
2021/03/06 07:00:08;;;;;;;4.88;2.60;;;-0.50;92.80;;;;;;5066779;28;20086;-38
2021/03/06 07:02:37;;;;;;;2.92;2.53;;;-0.50;92.60;;;;;;5066726;28;20082;-38
2021/03/06 07:05:06;;;;;;;4.22;2.17;;;-0.50;92.60;;;;;;5066746;28;20032;-37
2021/03/06 07:07:40;;;;;;;5.00;2.38;;;-0.40;92.70;;;;;;5066229;28;20085;-39
2021/03/06 07:10:10;;;;;;;3.72;1.73;;;-0.40;92.70;;;;;;5066537;28;20471;-39
2021/03/06 07:12:41;;;;;;;4.03;2.08;;;-0.40;92.70;;;;;;5066700;28;20056;-38
2021/03/06 07:15:14;;;;;;;5.22;2.53;;;-0.40;92.70;;;;;;5066232;28;20040;-38
2021/03/06 07:17:42;;;;;;;4.32;2.10;;;-0.40;92.80;;;;;;5066470;28;20389;-40
2021/03/06 07:20:19;;;;;;;5.30;2.28;;;-0.30;92.70;;;;;;5066409;28;20027;-37
2021/03/06 07:22:45;;;;;;;3.78;2.00;;;-0.30;92.70;;;;;;5066108;28;20047;-40
2021/03/06 07:25:11;;;;;;;4.70;2.10;;;-0.20;92.60;;;;;;5066645;28;20032;-39
2021/03/06 07:27:36;;;;;;;3.42;2.42;;;-0.20;92.60;;;;;;5067176;28;20029;-36
2021/03/06 07:30:08;;;;;;;5.30;2.30;;;-0.10;92.60;;;;;;5065737;28;20040;-40
2021/03/06 07:32:38;;;;;;;3.90;2.20;;;-0.10;92.60;;;;;;5066006;28;20028;-35
2021/03/06 07:35:05;;;;;;;2.47;1.90;;;-0.10;92.90;;;;;;5065905;28;20048;-39
2021/03/06 07:37:32;;;;;;;2.28;1.92;;;-0.10;92.60;;;;;;5066384;28;20017;-39
2021/03/06 07:39:59;;;;;;;4.32;2.15;;;-0.10;92.60;;;;;;5066479;28;20165;-40
2021/03/06 07:42:51;;;;;;;4.55;2.10;;;0.00;92.60;;;;;;5064822;28;20056;-36
2021/03/06 07:45:21;;;;;;;4.00;2.15;;;0.00;92.60;;;;;;5055103;28;20376;-36
2021/03/06 07:47:52;;;;;;;3.73;1.90;;;0.10;92.80;;;;;;5065572;28;20025;-39
2021/03/06 07:50:25;;;;;;;3.97;1.90;;;0.10;92.50;;;;;;5065397;28;20534;-43
2021/03/06 07:52:51;;;;;;;2.83;1.75;;;0.20;92.50;;;;;;5066559;28;20040;-38
2021/03/06 07:55:17;;;;;;;2.65;1.92;;;0.30;92.50;;;;;;5065309;28;20041;-39
2021/03/06 07:58:01;;;;;;;3.05;1.83;;;0.30;92.50;;;;;;5065340;28;20133;-39
2021/03/06 08:00:45;;;;;;;3.80;1.52;;;0.40;92.50;;;;;;5065331;28;20040;-39
2021/03/06 08:03:36;;;;;;;5.10;1.73;;;0.50;92.40;;;;;;5065389;28;20492;-40
2021/03/06 08:06:17;;;;;;;2.90;1.58;;;0.60;92.40;;;;;;5055264;28;20399;-37
2021/03/06 08:08:42;;;;;;;4.53;2.72;;;0.70;92.30;;;;;;5065607;28;20017;-39
2021/03/06 08:11:16;;;;;;;2.13;1.80;;;0.80;92.30;;;;;;5064650;28;20094;-38
2021/03/06 08:13:51;;;;;;;2.90;1.92;;;0.90;92.30;;;;;;5065118;28;20046;-38
2021/03/06 08:16:23;;;;;;;2.55;1.80;;;1.00;92.30;;;;;;5054311;28;20438;-39
2021/03/06 08:18:53;;;;;;;2.25;1.70;;;1.00;92.20;;;;;;5064883;28;20032;-39
2021/03/06 08:21:45;;;;;;;2.20;1.60;;;1.10;92.20;;;;;;5065346;28;20115;-40
2021/03/06 08:24:18;;;;;;;2.42;1.70;;;1.20;92.20;;;;;;5065325;28;20025;-39
2021/03/06 08:27:02;;;;;;;2.47;1.80;;;1.30;92.20;;;;;;5054501;28;20068;-37
2021/03/06 08:29:27;;;;;;;2.58;1.60;;;1.40;92.10;;;;;;5065470;28;20078;-40
2021/03/06 08:31:53;;;;;;;2.58;1.60;;;1.40;92.10;;;;;;5064640;28;20432;-36
2021/03/06 08:34:39;;;;;;;4.00;1.80;;;1.50;92.10;;;;;;5065508;28;20430;-39
2021/03/06 08:37:16;;;;;;;3.40;1.70;;;1.60;92.10;;;;;;5054784;28;20043;-38
2021/03/06 08:40:06;;;;;;;2.78;1.55;;;1.60;92.10;;;;;;5064443;28;20452;-39
2021/03/06 08:42:36;;;;;;;3.50;1.60;;;1.70;92.10;;;;;;5057425;28;20271;-41
2021/03/06 08:45:33;;;;;;;3.83;1.65;;;1.80;92.00;;;;;;5065505;28;20028;-38
2021/03/06 08:48:03;;;;;;;2.92;1.70;;;1.80;92.00;;;;;;5063851;28;20601;-36
2021/03/06 08:50:35;;;;;;;5.45;2.13;;;1.90;91.90;;;;;;5065036;28;20019;-41
2021/03/06 08:53:02;;;;;;;6.70;2.00;;;2.00;91.90;;;;;;5065536;28;20024;-38
2021/03/06 08:55:30;;;;;;;2.58;1.70;;;2.00;91.90;;;;;;5064339;28;20083;-39
2021/03/06 08:58:00;;;;;;;6.07;2.72;;;2.10;91.90;;;;;;5065063;28;20052;-38
2021/03/06 09:00:32;;;;;;;2.85;1.60;;;2.20;91.90;;;;;;5064785;28;20016;-36
2021/03/06 09:03:12;;;;;;;4.57;1.85;;;2.20;91.90;;;;;;5065130;28;20063;-39
2021/03/06 09:05:38;;;;;;;2.67;1.67;;;2.30;91.90;;;;;;5064830;28;20502;-40
2021/03/06 09:08:04;;;;;;;6.50;2.10;;;2.30;91.90;;;;;;5064852;28;20121;-38
2021/03/06 09:10:32;;;;;;;4.78;1.70;;;2.40;92.00;;;;;;5064890;28;20020;-37
2021/03/06 09:13:13;;;;;;;4.90;1.58;;;2.50;91.90;;;;;;5061519;28;20036;-35
2021/03/06 09:15:45;;;;;;;4.47;1.60;;;2.50;91.90;;;;;;5063732;28;20522;-39
2021/03/06 09:18:13;;;;;;;4.80;2.42;;;2.60;92.20;;;;;;5064286;28;20052;-40
2021/03/06 09:21:09;;;;;;;3.58;1.80;;;2.70;91.90;;;;;;5059274;28;20017;-39
2021/03/06 09:23:42;;;;;;;4.25;2.47;;;2.80;91.90;;;;;;5053227;28;20098;-38
2021/03/06 09:26:13;;;;;;;3.53;1.38;;;2.90;91.90;;;;;;5064581;28;20139;-39
2021/03/06 09:28:40;;;;;;;3.22;1.55;;;3.00;91.90;;;;;;5063771;28;20376;-37
2021/03/06 09:31:20;;;;;;;6.10;2.05;;;3.10;91.80;;;;;;5063736;28;20033;-41
2021/03/06 09:33:46;;;;;;;5.25;1.90;;;3.20;91.80;;;;;;5063532;28;20449;-41
2021/03/06 09:36:17;;;;;;;5.03;1.92;;;3.40;91.70;;;;;;5063674;28;20060;-40
2021/03/06 09:38:51;;;;;;;4.57;1.70;;;3.50;91.70;;;;;;5063829;28;20029;-39
2021/03/06 09:41:19;;;;;;;2.20;1.10;;;3.50;91.50;;;;;;5064157;28;20125;-38
2021/03/06 09:43:51;;;;;;;3.00;1.20;;;3.60;91.50;;;;;;5063284;28;20479;-40
2021/03/06 09:46:25;;;;;;;6.97;1.50;;;3.70;91.30;;;;;;5064156;28;20029;-37
2021/03/06 09:48:53;;;;;;;5.10;1.65;;;3.80;91.30;;;;;;5062414;28;20020;-37
2021/03/06 09:51:21;;;;;;;3.38;1.23;;;4.00;91.00;;;;;;5063645;28;20158;-38
2021/03/06 09:54:00;;;;;;;4.20;1.40;;;4.10;90.60;;;;;;5063405;28;20060;-39
2021/03/06 09:56:27;;;;;;;5.47;1.42;;;4.20;90.40;;;;;;5063691;28;20036;-39
2021/03/06 09:59:06;;;;;;;4.20;1.25;;;4.40;88.30;;;;;;5063110;28;20028;-37
2021/03/06 10:01:33;;;;;;;4.13;1.20;;;4.50;87.00;;;;;;5064793;28;20035;-39
2021/03/06 10:04:06;;;;;;;10.20;1.08;;;4.60;85.90;;;;;;5063796;28;20463;-39
2021/03/06 10:06:33;;;;;;;3.17;1.40;;;4.60;83.90;;;;;;5064959;28;20070;-38
2021/03/06 10:09:03;;;;;;;6.25;1.52;;;4.60;83.60;;;;;;5066974;28;20115;-38
2021/03/06 10:11:30;;;;;;;3.90;1.02;;;4.70;83.70;;;;;;5066549;28;20070;-38
2021/03/06 10:13:56;;;;;;;3.53;1.30;;;4.70;83.80;;;;;;5067082;28;20044;-37
2021/03/06 10:16:22;;;;;;;4.82;1.45;;;4.80;84.00;;;;;;5066829;28;20479;-39
2021/03/06 10:18:48;;;;;;;6.20;1.70;;;4.80;83.30;;;;;;5066165;28;20063;-36
2021/03/06 10:21:20;;;;;;;6.00;1.45;;;4.90;82.30;;;;;;5066414;28;20067;-39
2021/03/06 10:23:48;;;;;;;1.65;1.08;;;4.90;80.90;;;;;;5066890;28;20024;-38
2021/03/06 10:26:25;;;;;;;5.78;1.15;;;5.00;79.40;;;;;;5062799;28;20020;-39
2021/03/06 10:29:17;;;;;;;3.50;0.88;;;5.00;78.40;;;;;;5056280;28;20052;-41
2021/03/06 10:31:43;;;;;;;3.80;1.20;;;5.00;77.80;;;;;;5065539;28;20040;-40
2021/03/06 10:34:15;;;;;;;3.60;1.60;;;5.10;77.00;;;;;;5066401;28;20360;-40
2021/03/06 10:36:42;;;;;;;3.80;1.70;;;5.10;76.20;;;;;;5063507;28;20052;-38
2021/03/06 10:39:18;;;;;;;2.42;1.30;;;5.10;76.60;;;;;;5065664;28;20047;-39
2021/03/06 10:41:54;;;;;;;2.42;1.20;;;5.20;75.80;;;;;;5062124;28;20024;-39
2021/03/06 10:44:23;;;;;;;9.60;2.25;;;5.20;75.30;;;;;;5055664;28;20102;-39
2021/03/06 10:46:59;;;;;;;3.97;1.30;;;5.10;75.60;;;;;;5065788;28;20070;-39
2021/03/06 10:49:38;;;;;;;3.50;1.00;;;5.20;76.20;;;;;;5066049;28;20051;-39
2021/03/06 10:52:05;;;;;;;2.90;0.85;;;5.10;76.40;;;;;;5066489;28;20032;-39
2021/03/06 10:54:53;;;;;;;4.68;1.10;;;5.00;77.00;;;;;;5066640;28;20063;-35
2021/03/06 10:57:19;;;;;;;2.42;1.40;;;4.90;77.20;;;;;;5066120;28;20585;-40
2021/03/06 10:59:45;;;;;;;5.50;1.35;;;4.90;76.90;;;;;;5066470;28;20131;-39
2021/03/06 11:02:27;;;;;;;2.83;1.13;;;4.90;76.70;;;;;;5067781;28;20020;-42
2021/03/06 11:04:54;;;;;;;2.47;0.93;;;4.90;77.40;;;;;;5060084;28;20038;-40
2021/03/06 11:07:27;;;;;;;2.03;0.75;;;4.90;77.80;;;;;;5064431;28;20099;-40
2021/03/06 11:09:58;;;;;;;2.28;0.82;;;4.90;77.90;;;;;;5066079;28;20114;-38
2021/03/06 11:12:30;;;;;;;1.25;0.70;;;5.00;77.90;;;;;;5065966;28;21489;-38
2021/03/06 11:15:31;;;;;;;2.78;0.77;;;5.10;77.70;;;;;;5071054;28;20499;-39
2021/03/06 11:18:01;;;;;;;0.90;0.60;;;5.10;77.60;;;;;;5046193;28;20116;-40
2021/03/06 11:20:32;;;;;;;1.55;0.90;;;5.20;77.40;;;;;;5067263;28;20144;-40
2021/03/06 11:23:01;;;;;;;1.42;0.68;;;5.20;77.60;;;;;;5068105;28;20032;-38
2021/03/06 11:25:27;;;;;;;2.22;0.80;;;5.30;77.80;;;;;;5067996;28;20107;-40
2021/03/06 11:27:54;;;;;;;1.50;0.70;;;5.30;77.80;;;;;;5067726;28;20166;-37
2021/03/06 11:30:41;;;;;;;1.85;1.00;;;5.40;77.50;;;;;;5064881;28;20103;-40
2021/03/06 11:33:09;;;;;;;2.25;1.00;;;5.40;77.20;;;;;;5062194;28;20055;-37
2021/03/06 11:35:36;;;;;;;1.48;0.80;;;5.50;76.80;;;;;;5061191;28;20032;-40
2021/03/06 11:38:03;;;;;;;1.88;0.80;;;5.50;77.00;;;;;;5067824;28;20020;-39
2021/03/06 11:40:31;;;;;;;1.70;0.80;;;5.60;77.00;;;;;;5064660;28;20382;-36
2021/03/06 11:42:57;;;;;;;2.20;0.82;;;5.50;76.60;;;;;;5066703;28;20056;-39
2021/03/06 11:45:23;;;;;;;3.13;1.02;;;5.60;76.40;;;;;;5077716;28;20387;-40
2021/03/06 11:47:50;;;;;;;3.45;1.00;;;5.60;76.30;;;;;;5065466;28;20112;-39
2021/03/06 11:50:17;;;;;;;2.40;0.70;;;5.60;76.30;;;;;;5070786;28;20040;-39
2021/03/06 11:52:43;;;;;;;1.88;0.82;;;5.60;76.30;;;;;;5073182;28;20039;-38
2021/03/06 11:55:11;;;;;;;2.22;0.95;;;5.60;75.00;;;;;;5072805;28;20055;-37
2021/03/06 11:57:37;;;;;;;1.45;0.77;;;5.70;75.80;;;;;;5064717;28;20031;-40
2021/03/06 12:00:12;;;;;;;1.52;0.80;;;5.70;76.00;;;;;;5071992;28;20032;-38
2021/03/06 12:02:37;;;;;;;1.02;0.70;;;5.70;75.90;;;;;;5069381;28;20211;-37
2021/03/06 12:05:12;;;;;;;2.58;0.80;;;5.70;76.10;;;;;;5080645;28;20452;-41
2021/03/06 12:07:37;;;;;;;2.33;0.90;;;5.70;76.20;;;;;;5065335;28;20020;-39
2021/03/06 12:10:05;;;;;;;5.30;1.50;;;5.80;76.10;;;;;;5071485;28;20387;-40
2021/03/06 12:12:30;;;;;;;2.00;1.20;;;5.90;76.00;;;;;;5065099;28;20016;-40
2021/03/06 12:14:56;;;;;;;2.35;1.30;;;6.00;75.00;;;;;;5062638;28;20039;-40
2021/03/06 12:17:21;;;;;;;2.47;1.35;;;6.10;74.10;;;;;;5066669;28;20039;-38
2021/03/06 12:19:47;;;;;;;1.70;1.10;;;6.10;73.90;;;;;;5074623;28;20549;-39
2021/03/06 12:22:13;;;;;;;3.47;1.17;;;6.20;73.00;;;;;;5077713;28;20012;-40
2021/03/06 12:24:38;;;;;;;2.47;1.20;;;6.30;72.20;;;;;;5064747;28;20055;-39
2021/03/06 12:27:04;;;;;;;3.80;1.50;;;6.30;70.70;;;;;;5069814;28;20027;-37
2021/03/06 12:29:29;;;;;;;4.10;1.30;;;6.40;71.40;;;;;;5063376;28;20376;-38
2021/03/06 12:31:55;;;;;;;2.78;0.95;;;6.50;71.10;;;;;;5056348;28;20024;-36
2021/03/06 12:34:21;;;;;;;5.47;1.30;;;6.60;70.80;;;;;;5066603;28;20033;-40
2021/03/06 12:36:46;;;;;;;1.50;1.00;;;6.70;70.00;;;;;;5061720;28;21027;-39
2021/03/06 12:39:12;;;;;;;1.77;1.10;;;6.80;69.70;;;;;;5063778;28;20021;-36
2021/03/06 12:41:38;;;;;;;2.60;1.33;;;6.90;69.40;;;;;;5064364;28;20077;-36
2021/03/06 12:44:04;;;;;;;1.52;1.00;;;6.90;70.10;;;;;;5071696;28;20478;-37
2021/03/06 12:46:31;;;;;;;13.77;1.75;;;7.00;69.60;;;;;;5064230;28;20388;-39
2021/03/06 12:48:56;;;;;;;6.40;1.25;;;7.10;69.20;;;;;;5064619;28;20028;-39
2021/03/06 12:51:22;;;;;;;2.88;1.17;;;7.20;69.10;;;;;;5060070;28;20032;-38
2021/03/06 12:53:47;;;;;;;4.13;1.30;;;7.30;68.30;;;;;;5062216;28;20475;-39
2021/03/06 12:56:13;;;;;;;1.40;0.85;;;7.50;68.50;;;;;;5068374;28;20035;-40
2021/03/06 12:58:38;;;;;;;2.40;1.30;;;7.70;68.40;;;;;;5063946;28;20028;-39
2021/03/06 13:01:04;;;;;;;2.95;1.10;;;7.80;66.90;;;;;;5063970;28;20404;-39
2021/03/06 13:03:30;;;;;;;3.25;1.40;;;7.90;67.10;;;;;;5064750;28;20036;-39
2021/03/06 13:05:56;;;;;;;1.90;1.17;;;8.10;67.30;;;;;;5064278;28;20028;-39
2021/03/06 13:08:22;;;;;;;2.40;1.30;;;8.20;66.60;;;;;;5062816;28;20045;-39